sensor_id;sensor_type;location;lat;lon;timestamp;P1;durP1;ratioP1;P2;durP2;ratioP2
24559;SDS011;12727;49.934;8.656;2023-02-26T00:01:14;3.13;;;1.90;;
24559;SDS011;12727;49.934;8.656;2023-02-26T00:03:43;5.78;;;1.80;;
24559;SDS011;12727;49.934;8.656;2023-02-26T00:06:08;5.68;;;1.90;;
24559;SDS011;12727;49.934;8.656;2023-02-26T00:08:34;5.45;;;1.90;;
24559;SDS011;12727;49.934;8.656;2023-02-26T00:11:00;5.25;;;1.60;;
24559;SDS011;12727;49.934;8.656;2023-02-26T00:13:26;5.40;;;1.70;;
24559;SDS011;12727;49.934;8.656;2023-02-26T00:15:57;5.35;;;1.92;;
24559;SDS011;12727;49.934;8.656;2023-02-26T00:18:24;3.25;;;1.58;;
24559;SDS011;12727;49.934;8.656;2023-02-26T00:20:50;4.97;;;2.00;;
24559;SDS011;12727;49.934;8.656;2023-02-26T00:23:16;5.57;;;2.15;;
24559;SDS011;12727;49.934;8.656;2023-02-26T00:25:42;4.03;;;2.20;;
24559;SDS011;12727;49.934;8.656;2023-02-26T00:28:09;7.35;;;2.30;;
24559;SDS011;12727;49.934;8.656;2023-02-26T00:30:35;3.90;;;2.30;;
24559;SDS011;12727;49.934;8.656;2023-02-26T00:33:02;7.03;;;2.13;;
24559;SDS011;12727;49.934;8.656;2023-02-26T00:35:28;6.90;;;2.33;;
24559;SDS011;12727;49.934;8.656;2023-02-26T00:40:35;6.55;;;2.30;;
24559;SDS011;12727;49.934;8.656;2023-02-26T00:43:03;3.03;;;2.05;;
24559;SDS011;12727;49.934;8.656;2023-02-26T00:45:30;7.00;;;2.35;;
24559;SDS011;12727;49.934;8.656;2023-02-26T00:48:10;6.28;;;2.53;;
24559;SDS011;12727;49.934;8.656;2023-02-26T00:50:55;4.18;;;2.42;;
24559;SDS011;12727;49.934;8.656;2023-02-26T00:54:12;7.13;;;2.40;;
24559;SDS011;12727;49.934;8.656;2023-02-26T00:56:26;6.53;;;3.88;;
24559;SDS011;12727;49.934;8.656;2023-02-26T00:58:52;11.80;;;5.70;;
24559;SDS011;12727;49.934;8.656;2023-02-26T01:01:17;9.88;;;4.22;;
24559;SDS011;12727;49.934;8.656;2023-02-26T01:03:43;6.45;;;3.45;;
24559;SDS011;12727;49.934;8.656;2023-02-26T01:06:10;11.55;;;4.80;;
24559;SDS011;12727;49.934;8.656;2023-02-26T01:08:42;9.07;;;4.45;;
24559;SDS011;12727;49.934;8.656;2023-02-26T01:11:14;10.75;;;5.15;;
24559;SDS011;12727;49.934;8.656;2023-02-26T01:13:40;11.88;;;5.40;;
24559;SDS011;12727;49.934;8.656;2023-02-26T01:16:08;10.85;;;5.03;;
24559;SDS011;12727;49.934;8.656;2023-02-26T01:18:42;18.17;;;7.43;;
24559;SDS011;12727;49.934;8.656;2023-02-26T01:21:14;13.30;;;7.05;;
24559;SDS011;12727;49.934;8.656;2023-02-26T01:23:44;10.90;;;5.75;;
24559;SDS011;12727;49.934;8.656;2023-02-26T01:26:22;10.52;;;5.30;;
24559;SDS011;12727;49.934;8.656;2023-02-26T01:28:51;8.88;;;4.50;;
24559;SDS011;12727;49.934;8.656;2023-02-26T01:31:24;8.98;;;4.80;;
24559;SDS011;12727;49.934;8.656;2023-02-26T01:33:52;12.07;;;4.40;;
24559;SDS011;12727;49.934;8.656;2023-02-26T01:36:23;7.50;;;3.88;;
24559;SDS011;12727;49.934;8.656;2023-02-26T01:41:30;8.65;;;3.78;;
24559;SDS011;12727;49.934;8.656;2023-02-26T01:49:37;7.85;;;3.95;;
24559;SDS011;12727;49.934;8.656;2023-02-26T01:52:04;8.73;;;4.38;;
24559;SDS011;12727;49.934;8.656;2023-02-26T01:54:32;8.98;;;4.28;;
24559;SDS011;12727;49.934;8.656;2023-02-26T01:57:05;9.07;;;4.25;;
24559;SDS011;12727;49.934;8.656;2023-02-26T01:59:39;9.32;;;3.80;;
24559;SDS011;12727;49.934;8.656;2023-02-26T02:02:08;6.13;;;3.25;;
24559;SDS011;12727;49.934;8.656;2023-02-26T02:04:35;5.05;;;3.00;;
24559;SDS011;12727;49.934;8.656;2023-02-26T02:07:02;6.75;;;2.97;;
24559;SDS011;12727;49.934;8.656;2023-02-26T02:09:29;7.22;;;3.30;;
24559;SDS011;12727;49.934;8.656;2023-02-26T02:11:58;7.45;;;3.20;;
24559;SDS011;12727;49.934;8.656;2023-02-26T02:14:30;7.10;;;3.38;;
24559;SDS011;12727;49.934;8.656;2023-02-26T02:20:10;9.77;;;4.88;;
24559;SDS011;12727;49.934;8.656;2023-02-26T02:22:50;12.63;;;6.43;;
24559;SDS011;12727;49.934;8.656;2023-02-26T02:25:25;12.15;;;5.88;;
24559;SDS011;12727;49.934;8.656;2023-02-26T02:30:52;11.80;;;5.35;;
24559;SDS011;12727;49.934;8.656;2023-02-26T02:36:19;8.20;;;4.65;;
24559;SDS011;12727;49.934;8.656;2023-02-26T02:38:54;8.07;;;4.00;;
24559;SDS011;12727;49.934;8.656;2023-02-26T02:41:26;7.65;;;3.95;;
24559;SDS011;12727;49.934;8.656;2023-02-26T02:46:31;8.43;;;2.97;;
24559;SDS011;12727;49.934;8.656;2023-02-26T02:49:00;6.20;;;2.50;;
24559;SDS011;12727;49.934;8.656;2023-02-26T02:51:32;8.65;;;2.35;;
24559;SDS011;12727;49.934;8.656;2023-02-26T02:54:48;5.28;;;2.25;;
24559;SDS011;12727;49.934;8.656;2023-02-26T02:57:22;8.23;;;2.45;;
24559;SDS011;12727;49.934;8.656;2023-02-26T02:59:47;5.70;;;2.50;;
24559;SDS011;12727;49.934;8.656;2023-02-26T03:02:18;4.65;;;2.13;;
24559;SDS011;12727;49.934;8.656;2023-02-26T03:04:50;3.67;;;1.95;;
24559;SDS011;12727;49.934;8.656;2023-02-26T03:07:17;5.32;;;1.52;;
24559;SDS011;12727;49.934;8.656;2023-02-26T03:09:42;5.68;;;1.30;;
24559;SDS011;12727;49.934;8.656;2023-02-26T03:12:08;5.70;;;1.50;;
24559;SDS011;12727;49.934;8.656;2023-02-26T03:14:35;4.03;;;1.25;;
24559;SDS011;12727;49.934;8.656;2023-02-26T03:17:04;3.67;;;1.08;;
24559;SDS011;12727;49.934;8.656;2023-02-26T03:25:08;4.15;;;0.98;;
24559;SDS011;12727;49.934;8.656;2023-02-26T03:33:21;1.92;;;1.00;;
24559;SDS011;12727;49.934;8.656;2023-02-26T03:41:16;3.92;;;0.98;;
24559;SDS011;12727;49.934;8.656;2023-02-26T03:43:50;3.67;;;1.10;;
24559;SDS011;12727;49.934;8.656;2023-02-26T03:46:22;4.18;;;1.42;;
24559;SDS011;12727;49.934;8.656;2023-02-26T03:48:54;1.50;;;0.90;;
24559;SDS011;12727;49.934;8.656;2023-02-26T03:51:23;2.83;;;1.30;;
24559;SDS011;12727;49.934;8.656;2023-02-26T03:53:53;2.47;;;1.05;;
24559;SDS011;12727;49.934;8.656;2023-02-26T03:56:25;4.13;;;1.00;;
24559;SDS011;12727;49.934;8.656;2023-02-26T03:58:57;6.07;;;1.13;;
24559;SDS011;12727;49.934;8.656;2023-02-26T04:01:24;3.45;;;1.30;;
24559;SDS011;12727;49.934;8.656;2023-02-26T04:03:56;3.72;;;1.13;;
24559;SDS011;12727;49.934;8.656;2023-02-26T04:06:26;3.42;;;1.10;;
24559;SDS011;12727;49.934;8.656;2023-02-26T04:08:52;4.25;;;1.10;;
24559;SDS011;12727;49.934;8.656;2023-02-26T04:11:19;3.55;;;1.40;;
24559;SDS011;12727;49.934;8.656;2023-02-26T04:13:46;3.55;;;1.27;;
24559;SDS011;12727;49.934;8.656;2023-02-26T04:16:13;3.28;;;1.40;;
24559;SDS011;12727;49.934;8.656;2023-02-26T04:18:39;5.35;;;1.50;;
24559;SDS011;12727;49.934;8.656;2023-02-26T04:21:06;2.97;;;1.48;;
24559;SDS011;12727;49.934;8.656;2023-02-26T04:23:36;2.97;;;1.33;;
24559;SDS011;12727;49.934;8.656;2023-02-26T04:26:01;4.80;;;1.30;;
24559;SDS011;12727;49.934;8.656;2023-02-26T04:28:27;4.85;;;1.42;;
24559;SDS011;12727;49.934;8.656;2023-02-26T04:30:54;3.22;;;1.67;;
24559;SDS011;12727;49.934;8.656;2023-02-26T04:33:19;6.15;;;1.65;;
24559;SDS011;12727;49.934;8.656;2023-02-26T04:35:45;5.28;;;1.95;;
24559;SDS011;12727;49.934;8.656;2023-02-26T04:38:10;5.50;;;2.00;;
24559;SDS011;12727;49.934;8.656;2023-02-26T04:40:36;3.90;;;1.67;;
24559;SDS011;12727;49.934;8.656;2023-02-26T04:43:01;4.93;;;1.85;;
24559;SDS011;12727;49.934;8.656;2023-02-26T04:45:27;5.13;;;2.08;;
24559;SDS011;12727;49.934;8.656;2023-02-26T04:47:53;9.70;;;2.25;;
24559;SDS011;12727;49.934;8.656;2023-02-26T04:50:18;5.13;;;1.52;;
24559;SDS011;12727;49.934;8.656;2023-02-26T04:52:44;4.03;;;1.70;;
24559;SDS011;12727;49.934;8.656;2023-02-26T04:55:10;4.07;;;1.75;;
24559;SDS011;12727;49.934;8.656;2023-02-26T04:57:36;3.80;;;1.83;;
24559;SDS011;12727;49.934;8.656;2023-02-26T05:00:02;3.75;;;1.70;;
24559;SDS011;12727;49.934;8.656;2023-02-26T05:02:31;7.35;;;2.03;;
24559;SDS011;12727;49.934;8.656;2023-02-26T05:04:57;6.82;;;2.00;;
24559;SDS011;12727;49.934;8.656;2023-02-26T05:07:23;6.03;;;1.90;;
24559;SDS011;12727;49.934;8.656;2023-02-26T05:09:48;4.38;;;1.80;;
24559;SDS011;12727;49.934;8.656;2023-02-26T05:12:14;4.57;;;2.30;;
24559;SDS011;12727;49.934;8.656;2023-02-26T05:14:40;4.13;;;2.15;;
24559;SDS011;12727;49.934;8.656;2023-02-26T05:17:05;4.60;;;2.13;;
24559;SDS011;12727;49.934;8.656;2023-02-26T05:19:31;7.47;;;2.13;;
24559;SDS011;12727;49.934;8.656;2023-02-26T05:21:57;5.78;;;2.17;;
24559;SDS011;12727;49.934;8.656;2023-02-26T05:24:22;6.43;;;2.53;;
24559;SDS011;12727;49.934;8.656;2023-02-26T05:26:48;7.30;;;2.63;;
24559;SDS011;12727;49.934;8.656;2023-02-26T05:29:13;5.35;;;2.50;;
24559;SDS011;12727;49.934;8.656;2023-02-26T05:31:39;5.35;;;2.40;;
24559;SDS011;12727;49.934;8.656;2023-02-26T05:34:05;8.35;;;2.75;;
24559;SDS011;12727;49.934;8.656;2023-02-26T05:36:31;6.25;;;2.47;;
24559;SDS011;12727;49.934;8.656;2023-02-26T05:38:56;8.13;;;2.67;;
24559;SDS011;12727;49.934;8.656;2023-02-26T05:41:22;6.72;;;2.63;;
24559;SDS011;12727;49.934;8.656;2023-02-26T05:43:47;5.57;;;2.63;;
24559;SDS011;12727;49.934;8.656;2023-02-26T05:46:13;6.13;;;2.80;;
24559;SDS011;12727;49.934;8.656;2023-02-26T05:48:39;6.15;;;2.45;;
24559;SDS011;12727;49.934;8.656;2023-02-26T05:51:05;5.85;;;2.97;;
24559;SDS011;12727;49.934;8.656;2023-02-26T05:53:30;5.97;;;3.35;;
24559;SDS011;12727;49.934;8.656;2023-02-26T05:55:56;8.45;;;3.13;;
24559;SDS011;12727;49.934;8.656;2023-02-26T05:58:21;7.65;;;2.75;;
24559;SDS011;12727;49.934;8.656;2023-02-26T06:00:47;7.00;;;2.80;;
24559;SDS011;12727;49.934;8.656;2023-02-26T06:03:13;6.32;;;3.63;;
24559;SDS011;12727;49.934;8.656;2023-02-26T06:05:39;6.63;;;2.72;;
24559;SDS011;12727;49.934;8.656;2023-02-26T06:08:04;8.10;;;3.45;;
24559;SDS011;12727;49.934;8.656;2023-02-26T06:10:30;6.57;;;3.00;;
24559;SDS011;12727;49.934;8.656;2023-02-26T06:12:56;6.95;;;2.80;;
24559;SDS011;12727;49.934;8.656;2023-02-26T06:15:22;13.07;;;3.80;;
24559;SDS011;12727;49.934;8.656;2023-02-26T06:17:48;5.68;;;3.00;;
24559;SDS011;12727;49.934;8.656;2023-02-26T06:20:17;10.30;;;3.25;;
24559;SDS011;12727;49.934;8.656;2023-02-26T06:22:43;6.22;;;3.00;;
24559;SDS011;12727;49.934;8.656;2023-02-26T06:25:08;4.28;;;2.83;;
24559;SDS011;12727;49.934;8.656;2023-02-26T06:27:34;6.78;;;3.08;;
24559;SDS011;12727;49.934;8.656;2023-02-26T06:29:59;8.48;;;3.72;;
24559;SDS011;12727;49.934;8.656;2023-02-26T06:32:25;4.00;;;2.55;;
24559;SDS011;12727;49.934;8.656;2023-02-26T06:34:50;6.93;;;3.03;;
24559;SDS011;12727;49.934;8.656;2023-02-26T06:37:16;6.35;;;3.13;;
24559;SDS011;12727;49.934;8.656;2023-02-26T06:39:42;10.00;;;3.47;;
24559;SDS011;12727;49.934;8.656;2023-02-26T06:42:07;5.90;;;2.55;;
24559;SDS011;12727;49.934;8.656;2023-02-26T06:44:33;6.45;;;2.47;;
24559;SDS011;12727;49.934;8.656;2023-02-26T06:46:58;5.25;;;3.10;;
24559;SDS011;12727;49.934;8.656;2023-02-26T06:49:24;7.72;;;2.95;;
24559;SDS011;12727;49.934;8.656;2023-02-26T06:51:50;6.00;;;2.40;;
24559;SDS011;12727;49.934;8.656;2023-02-26T06:54:15;7.30;;;2.80;;
24559;SDS011;12727;49.934;8.656;2023-02-26T06:56:41;6.88;;;3.63;;
24559;SDS011;12727;49.934;8.656;2023-02-26T06:59:06;3.90;;;2.63;;
24559;SDS011;12727;49.934;8.656;2023-02-26T07:01:32;5.72;;;2.80;;
24559;SDS011;12727;49.934;8.656;2023-02-26T07:04:00;5.53;;;2.85;;
24559;SDS011;12727;49.934;8.656;2023-02-26T07:06:26;5.72;;;2.50;;
24559;SDS011;12727;49.934;8.656;2023-02-26T07:08:52;5.05;;;3.38;;
24559;SDS011;12727;49.934;8.656;2023-02-26T07:11:20;7.07;;;2.55;;
24559;SDS011;12727;49.934;8.656;2023-02-26T07:13:46;7.25;;;2.90;;
24559;SDS011;12727;49.934;8.656;2023-02-26T07:16:11;5.07;;;2.42;;
24559;SDS011;12727;49.934;8.656;2023-02-26T07:18:37;5.28;;;2.28;;
24559;SDS011;12727;49.934;8.656;2023-02-26T07:21:03;5.32;;;2.30;;
24559;SDS011;12727;49.934;8.656;2023-02-26T07:23:29;4.97;;;2.13;;
24559;SDS011;12727;49.934;8.656;2023-02-26T07:26:01;10.55;;;2.78;;
24559;SDS011;12727;49.934;8.656;2023-02-26T07:28:28;5.85;;;2.53;;
24559;SDS011;12727;49.934;8.656;2023-02-26T07:30:54;6.35;;;2.35;;
24559;SDS011;12727;49.934;8.656;2023-02-26T07:33:20;3.67;;;2.00;;
24559;SDS011;12727;49.934;8.656;2023-02-26T07:35:46;5.53;;;2.35;;
24559;SDS011;12727;49.934;8.656;2023-02-26T07:38:12;5.95;;;2.38;;
24559;SDS011;12727;49.934;8.656;2023-02-26T07:40:39;4.03;;;2.40;;
24559;SDS011;12727;49.934;8.656;2023-02-26T07:43:05;5.05;;;2.25;;
24559;SDS011;12727;49.934;8.656;2023-02-26T07:45:31;4.78;;;2.40;;
24559;SDS011;12727;49.934;8.656;2023-02-26T07:47:56;5.93;;;1.75;;
24559;SDS011;12727;49.934;8.656;2023-02-26T07:50:22;6.65;;;1.80;;
24559;SDS011;12727;49.934;8.656;2023-02-26T07:52:50;6.20;;;2.22;;
24559;SDS011;12727;49.934;8.656;2023-02-26T07:55:16;6.13;;;2.38;;
24559;SDS011;12727;49.934;8.656;2023-02-26T07:57:43;3.22;;;1.90;;
24559;SDS011;12727;49.934;8.656;2023-02-26T08:00:08;3.38;;;1.60;;
24559;SDS011;12727;49.934;8.656;2023-02-26T08:02:34;5.82;;;2.58;;
24559;SDS011;12727;49.934;8.656;2023-02-26T08:05:00;4.65;;;2.15;;
24559;SDS011;12727;49.934;8.656;2023-02-26T08:07:26;4.30;;;1.33;;
24559;SDS011;12727;49.934;8.656;2023-02-26T08:09:51;3.15;;;1.60;;
24559;SDS011;12727;49.934;8.656;2023-02-26T08:12:17;2.20;;;1.45;;
24559;SDS011;12727;49.934;8.656;2023-02-26T08:14:42;5.07;;;2.40;;
24559;SDS011;12727;49.934;8.656;2023-02-26T08:17:08;3.72;;;2.03;;
24559;SDS011;12727;49.934;8.656;2023-02-26T08:19:35;5.03;;;1.85;;
24559;SDS011;12727;49.934;8.656;2023-02-26T08:22:01;5.45;;;2.25;;
24559;SDS011;12727;49.934;8.656;2023-02-26T08:24:27;4.32;;;1.60;;
24559;SDS011;12727;49.934;8.656;2023-02-26T08:26:52;2.17;;;1.63;;
24559;SDS011;12727;49.934;8.656;2023-02-26T08:29:18;4.63;;;2.00;;
24559;SDS011;12727;49.934;8.656;2023-02-26T08:31:44;3.05;;;1.58;;
24559;SDS011;12727;49.934;8.656;2023-02-26T08:34:10;3.47;;;1.73;;
24559;SDS011;12727;49.934;8.656;2023-02-26T08:36:35;4.32;;;1.75;;
24559;SDS011;12727;49.934;8.656;2023-02-26T08:39:01;3.63;;;1.67;;
24559;SDS011;12727;49.934;8.656;2023-02-26T08:41:27;3.25;;;1.90;;
24559;SDS011;12727;49.934;8.656;2023-02-26T08:43:56;3.45;;;1.90;;
24559;SDS011;12727;49.934;8.656;2023-02-26T08:46:22;1.90;;;1.27;;
24559;SDS011;12727;49.934;8.656;2023-02-26T08:48:48;4.15;;;1.50;;
24559;SDS011;12727;49.934;8.656;2023-02-26T08:51:13;2.08;;;1.20;;
24559;SDS011;12727;49.934;8.656;2023-02-26T08:53:39;4.55;;;1.48;;
24559;SDS011;12727;49.934;8.656;2023-02-26T08:56:05;3.53;;;1.58;;
24559;SDS011;12727;49.934;8.656;2023-02-26T08:58:31;4.70;;;1.55;;
24559;SDS011;12727;49.934;8.656;2023-02-26T09:00:57;4.05;;;1.73;;
24559;SDS011;12727;49.934;8.656;2023-02-26T09:03:22;4.20;;;1.55;;
24559;SDS011;12727;49.934;8.656;2023-02-26T09:05:49;3.75;;;1.67;;
24559;SDS011;12727;49.934;8.656;2023-02-26T09:08:15;3.33;;;1.42;;
24559;SDS011;12727;49.934;8.656;2023-02-26T09:10:41;3.78;;;1.30;;
24559;SDS011;12727;49.934;8.656;2023-02-26T09:13:07;3.50;;;1.50;;
24559;SDS011;12727;49.934;8.656;2023-02-26T09:18:56;2.92;;;1.60;;
24559;SDS011;12727;49.934;8.656;2023-02-26T09:21:21;4.53;;;1.33;;
24559;SDS011;12727;49.934;8.656;2023-02-26T09:23:47;2.85;;;1.50;;
24559;SDS011;12727;49.934;8.656;2023-02-26T09:26:13;2.47;;;1.23;;
24559;SDS011;12727;49.934;8.656;2023-02-26T09:28:39;3.40;;;1.50;;
24559;SDS011;12727;49.934;8.656;2023-02-26T09:31:04;1.65;;;0.85;;
24559;SDS011;12727;49.934;8.656;2023-02-26T09:33:31;5.57;;;1.67;;
24559;SDS011;12727;49.934;8.656;2023-02-26T09:35:57;3.97;;;1.48;;
24559;SDS011;12727;49.934;8.656;2023-02-26T09:38:23;1.58;;;1.10;;
24559;SDS011;12727;49.934;8.656;2023-02-26T09:40:50;2.70;;;1.23;;
24559;SDS011;12727;49.934;8.656;2023-02-26T09:46:03;4.38;;;1.23;;
24559;SDS011;12727;49.934;8.656;2023-02-26T09:48:35;1.88;;;1.08;;
24559;SDS011;12727;49.934;8.656;2023-02-26T09:51:03;2.30;;;1.00;;
24559;SDS011;12727;49.934;8.656;2023-02-26T09:53:34;3.38;;;1.02;;
24559;SDS011;12727;49.934;8.656;2023-02-26T09:56:12;2.50;;;0.85;;
24559;SDS011;12727;49.934;8.656;2023-02-26T09:58:45;1.65;;;0.85;;
24559;SDS011;12727;49.934;8.656;2023-02-26T10:03:54;2.17;;;0.70;;
24559;SDS011;12727;49.934;8.656;2023-02-26T10:06:29;3.40;;;1.00;;
24559;SDS011;12727;49.934;8.656;2023-02-26T10:12:15;2.03;;;0.85;;
24559;SDS011;12727;49.934;8.656;2023-02-26T10:20:17;2.55;;;0.75;;
24559;SDS011;12727;49.934;8.656;2023-02-26T10:25:44;3.88;;;1.17;;
24559;SDS011;12727;49.934;8.656;2023-02-26T10:28:23;1.15;;;0.60;;
24559;SDS011;12727;49.934;8.656;2023-02-26T10:30:57;2.08;;;0.82;;
24559;SDS011;12727;49.934;8.656;2023-02-26T10:39:26;11.25;;;4.47;;
24559;SDS011;12727;49.934;8.656;2023-02-26T10:42:19;5.15;;;0.90;;
24559;SDS011;12727;49.934;8.656;2023-02-26T10:52:30;0.77;;;0.50;;
24559;SDS011;12727;49.934;8.656;2023-02-26T10:55:01;5.32;;;0.73;;
24559;SDS011;12727;49.934;8.656;2023-02-26T10:57:29;2.67;;;0.80;;
24559;SDS011;12727;49.934;8.656;2023-02-26T11:00:03;1.85;;;0.75;;
24559;SDS011;12727;49.934;8.656;2023-02-26T11:02:32;2.97;;;0.70;;
24559;SDS011;12727;49.934;8.656;2023-02-26T11:05:04;2.50;;;0.80;;
24559;SDS011;12727;49.934;8.656;2023-02-26T11:07:31;2.47;;;0.63;;
24559;SDS011;12727;49.934;8.656;2023-02-26T11:10:00;2.72;;;0.70;;
24559;SDS011;12727;49.934;8.656;2023-02-26T11:12:27;1.20;;;0.55;;
24559;SDS011;12727;49.934;8.656;2023-02-26T11:14:53;1.25;;;0.52;;
24559;SDS011;12727;49.934;8.656;2023-02-26T11:17:22;1.55;;;0.65;;
24559;SDS011;12727;49.934;8.656;2023-02-26T11:19:57;1.48;;;0.70;;
24559;SDS011;12727;49.934;8.656;2023-02-26T11:22:26;4.85;;;0.70;;
24559;SDS011;12727;49.934;8.656;2023-02-26T11:24:55;1.85;;;0.57;;
24559;SDS011;12727;49.934;8.656;2023-02-26T11:27:24;1.65;;;0.50;;
24559;SDS011;12727;49.934;8.656;2023-02-26T11:29:55;2.75;;;0.82;;
24559;SDS011;12727;49.934;8.656;2023-02-26T11:32:34;1.35;;;0.93;;
24559;SDS011;12727;49.934;8.656;2023-02-26T11:35:02;1.92;;;0.60;;
24559;SDS011;12727;49.934;8.656;2023-02-26T11:37:35;1.10;;;0.70;;
24559;SDS011;12727;49.934;8.656;2023-02-26T11:40:17;2.60;;;0.73;;
24559;SDS011;12727;49.934;8.656;2023-02-26T11:43:06;1.95;;;0.60;;
24559;SDS011;12727;49.934;8.656;2023-02-26T11:45:38;2.30;;;0.65;;
24559;SDS011;12727;49.934;8.656;2023-02-26T11:48:08;1.75;;;0.77;;
24559;SDS011;12727;49.934;8.656;2023-02-26T11:50:39;1.92;;;0.70;;
24559;SDS011;12727;49.934;8.656;2023-02-26T11:53:16;3.83;;;0.75;;
24559;SDS011;12727;49.934;8.656;2023-02-26T11:55:44;3.08;;;0.90;;
24559;SDS011;12727;49.934;8.656;2023-02-26T11:58:19;2.47;;;1.20;;
24559;SDS011;12727;49.934;8.656;2023-02-26T12:00:47;2.03;;;0.80;;
24559;SDS011;12727;49.934;8.656;2023-02-26T12:03:19;3.10;;;0.60;;
24559;SDS011;12727;49.934;8.656;2023-02-26T12:05:46;4.50;;;0.70;;
24559;SDS011;12727;49.934;8.656;2023-02-26T12:08:27;3.92;;;1.08;;
24559;SDS011;12727;49.934;8.656;2023-02-26T12:13:40;1.92;;;0.93;;
24559;SDS011;12727;49.934;8.656;2023-02-26T12:21:35;1.67;;;0.55;;
24559;SDS011;12727;49.934;8.656;2023-02-26T12:24:37;1.83;;;0.50;;
24559;SDS011;12727;49.934;8.656;2023-02-26T12:33:13;2.97;;;0.60;;
24559;SDS011;12727;49.934;8.656;2023-02-26T12:35:46;1.67;;;0.65;;
24559;SDS011;12727;49.934;8.656;2023-02-26T12:38:29;1.00;;;0.40;;
24559;SDS011;12727;49.934;8.656;2023-02-26T12:49:34;1.75;;;0.80;;
24559;SDS011;12727;49.934;8.656;2023-02-26T12:55:22;4.00;;;2.50;;
24559;SDS011;12727;49.934;8.656;2023-02-26T13:01:24;0.93;;;0.60;;
24559;SDS011;12727;49.934;8.656;2023-02-26T13:22:10;1.27;;;0.40;;
24559;SDS011;12727;49.934;8.656;2023-02-26T13:24:18;2.65;;;1.58;;
24559;SDS011;12727;49.934;8.656;2023-02-26T13:27:00;0.77;;;0.30;;
24559;SDS011;12727;49.934;8.656;2023-02-26T13:29:29;0.70;;;0.20;;
24559;SDS011;12727;49.934;8.656;2023-02-26T13:32:02;0.98;;;0.38;;
24559;SDS011;12727;49.934;8.656;2023-02-26T13:35:00;0.93;;;0.30;;
24559;SDS011;12727;49.934;8.656;2023-02-26T13:37:31;3.55;;;0.70;;
24559;SDS011;12727;49.934;8.656;2023-02-26T13:52:00;2.22;;;0.43;;
24559;SDS011;12727;49.934;8.656;2023-02-26T13:54:44;2.25;;;1.23;;
24559;SDS011;12727;49.934;8.656;2023-02-26T14:02:52;1.60;;;0.50;;
24559;SDS011;12727;49.934;8.656;2023-02-26T14:08:21;2.35;;;0.85;;
24559;SDS011;12727;49.934;8.656;2023-02-26T14:10:55;3.95;;;0.70;;
24559;SDS011;12727;49.934;8.656;2023-02-26T14:13:38;1.70;;;0.80;;
24559;SDS011;12727;49.934;8.656;2023-02-26T14:25:04;1.10;;;0.43;;
24559;SDS011;12727;49.934;8.656;2023-02-26T14:36:26;1.17;;;0.57;;
24559;SDS011;12727;49.934;8.656;2023-02-26T14:39:00;0.90;;;0.60;;
24559;SDS011;12727;49.934;8.656;2023-02-26T14:41:44;1.33;;;0.50;;
24559;SDS011;12727;49.934;8.656;2023-02-26T14:44:17;1.45;;;0.40;;
24559;SDS011;12727;49.934;8.656;2023-02-26T14:46:47;1.10;;;0.80;;
24559;SDS011;12727;49.934;8.656;2023-02-26T14:49:29;1.63;;;0.80;;
24559;SDS011;12727;49.934;8.656;2023-02-26T14:55:22;1.25;;;0.40;;
24559;SDS011;12727;49.934;8.656;2023-02-26T15:06:58;1.73;;;0.60;;
24559;SDS011;12727;49.934;8.656;2023-02-26T15:09:52;1.05;;;0.40;;
24559;SDS011;12727;49.934;8.656;2023-02-26T15:24:41;1.75;;;0.30;;
24559;SDS011;12727;49.934;8.656;2023-02-26T15:27:35;1.50;;;0.28;;
24559;SDS011;12727;49.934;8.656;2023-02-26T15:30:01;0.68;;;0.43;;
24559;SDS011;12727;49.934;8.656;2023-02-26T15:32:28;1.30;;;0.30;;
24559;SDS011;12727;49.934;8.656;2023-02-26T15:37:46;2.10;;;0.50;;
24559;SDS011;12727;49.934;8.656;2023-02-26T15:40:21;0.85;;;0.32;;
24559;SDS011;12727;49.934;8.656;2023-02-26T15:42:49;1.33;;;0.30;;
24559;SDS011;12727;49.934;8.656;2023-02-26T15:45:30;0.70;;;0.30;;
24559;SDS011;12727;49.934;8.656;2023-02-26T15:48:10;0.80;;;0.50;;
24559;SDS011;12727;49.934;8.656;2023-02-26T15:50:40;1.23;;;0.40;;
24559;SDS011;12727;49.934;8.656;2023-02-26T15:53:11;0.98;;;0.25;;
24559;SDS011;12727;49.934;8.656;2023-02-26T15:59:12;1.45;;;0.30;;
24559;SDS011;12727;49.934;8.656;2023-02-26T16:02:14;0.95;;;0.40;;
24559;SDS011;12727;49.934;8.656;2023-02-26T16:04:43;0.80;;;0.52;;
24559;SDS011;12727;49.934;8.656;2023-02-26T16:07:09;0.60;;;0.20;;
24559;SDS011;12727;49.934;8.656;2023-02-26T16:09:38;1.50;;;0.50;;
24559;SDS011;12727;49.934;8.656;2023-02-26T16:12:12;0.90;;;0.40;;
24559;SDS011;12727;49.934;8.656;2023-02-26T16:14:46;1.52;;;0.50;;
24559;SDS011;12727;49.934;8.656;2023-02-26T16:17:38;0.45;;;0.38;;
24559;SDS011;12727;49.934;8.656;2023-02-26T16:20:30;1.33;;;0.60;;
24559;SDS011;12727;49.934;8.656;2023-02-26T16:23:12;0.73;;;0.40;;
24559;SDS011;12727;49.934;8.656;2023-02-26T16:25:52;1.77;;;0.50;;
24559;SDS011;12727;49.934;8.656;2023-02-26T16:28:21;1.08;;;0.38;;
24559;SDS011;12727;49.934;8.656;2023-02-26T16:31:22;1.48;;;0.30;;
24559;SDS011;12727;49.934;8.656;2023-02-26T16:34:02;0.88;;;0.40;;
24559;SDS011;12727;49.934;8.656;2023-02-26T16:36:30;0.73;;;0.43;;
24559;SDS011;12727;49.934;8.656;2023-02-26T16:41:45;4.47;;;0.70;;
24559;SDS011;12727;49.934;8.656;2023-02-26T16:44:36;1.40;;;0.60;;
24559;SDS011;12727;49.934;8.656;2023-02-26T16:48:09;11.85;;;6.03;;
24559;SDS011;12727;49.934;8.656;2023-02-26T16:53:59;1.83;;;0.70;;
24559;SDS011;12727;49.934;8.656;2023-02-26T16:56:34;0.90;;;0.47;;
24559;SDS011;12727;49.934;8.656;2023-02-26T16:59:17;2.03;;;0.60;;
24559;SDS011;12727;49.934;8.656;2023-02-26T17:01:56;5.30;;;2.38;;
24559;SDS011;12727;49.934;8.656;2023-02-26T17:04:34;1.38;;;0.73;;
24559;SDS011;12727;49.934;8.656;2023-02-26T17:07:05;17.83;;;8.93;;
24559;SDS011;12727;49.934;8.656;2023-02-26T17:09:44;1.75;;;0.90;;
24559;SDS011;12727;49.934;8.656;2023-02-26T17:12:15;4.43;;;1.10;;
24559;SDS011;12727;49.934;8.656;2023-02-26T17:14:46;2.58;;;1.35;;
24559;SDS011;12727;49.934;8.656;2023-02-26T17:17:18;2.13;;;0.98;;
24559;SDS011;12727;49.934;8.656;2023-02-26T17:19:44;7.88;;;3.40;;
24559;SDS011;12727;49.934;8.656;2023-02-26T17:22:11;2.33;;;1.33;;
24559;SDS011;12727;49.934;8.656;2023-02-26T17:24:39;0.98;;;0.50;;
24559;SDS011;12727;49.934;8.656;2023-02-26T17:27:09;1.85;;;0.60;;
24559;SDS011;12727;49.934;8.656;2023-02-26T17:29:40;1.50;;;0.80;;
24559;SDS011;12727;49.934;8.656;2023-02-26T17:32:12;2.60;;;0.90;;
24559;SDS011;12727;49.934;8.656;2023-02-26T17:34:44;1.40;;;0.70;;
24559;SDS011;12727;49.934;8.656;2023-02-26T17:37:10;0.70;;;0.50;;
24559;SDS011;12727;49.934;8.656;2023-02-26T17:39:37;1.48;;;0.50;;
24559;SDS011;12727;49.934;8.656;2023-02-26T17:42:02;1.17;;;0.55;;
24559;SDS011;12727;49.934;8.656;2023-02-26T17:44:32;1.02;;;0.50;;
24559;SDS011;12727;49.934;8.656;2023-02-26T17:46:58;1.23;;;0.70;;
24559;SDS011;12727;49.934;8.656;2023-02-26T17:49:23;3.38;;;1.90;;
24559;SDS011;12727;49.934;8.656;2023-02-26T17:51:49;1.70;;;0.68;;
24559;SDS011;12727;49.934;8.656;2023-02-26T17:54:17;1.10;;;0.65;;
24559;SDS011;12727;49.934;8.656;2023-02-26T17:56:43;0.98;;;0.60;;
24559;SDS011;12727;49.934;8.656;2023-02-26T17:59:09;4.22;;;0.60;;
24559;SDS011;12727;49.934;8.656;2023-02-26T18:01:36;2.75;;;0.60;;
24559;SDS011;12727;49.934;8.656;2023-02-26T18:04:02;2.25;;;0.80;;
24559;SDS011;12727;49.934;8.656;2023-02-26T18:06:29;1.45;;;0.60;;
24559;SDS011;12727;49.934;8.656;2023-02-26T18:09:01;1.85;;;0.70;;
24559;SDS011;12727;49.934;8.656;2023-02-26T18:11:29;1.73;;;0.50;;
24559;SDS011;12727;49.934;8.656;2023-02-26T18:13:56;1.08;;;0.50;;
24559;SDS011;12727;49.934;8.656;2023-02-26T18:16:25;1.45;;;0.50;;
24559;SDS011;12727;49.934;8.656;2023-02-26T18:18:57;1.33;;;0.70;;
24559;SDS011;12727;49.934;8.656;2023-02-26T18:21:23;1.73;;;0.60;;